Aviation Digital Data Service (ADDS)

Output produced by TAFs form (1331 UTC 25 September 2017)
found at http://www.aviationweather.gov/adds/tafs/
 
METAR text: RJSR 251000Z VRB02KT 9999 FEW030 17/17 Q1014
Conditions at: RJSR (ODATE-NOSHIRO , JP) observed 1000 UTC 25 September 2017
Temperature: 17.0°C (63°F)
Dewpoint: 17.0°C (63°F) [RH = 100%]
Pressure (altimeter): 29.94 inches Hg (1014.0 mb)
Winds: variable direction winds at 2 MPH (2 knots; 1.0 m/s)
Visibility: 6 or more miles (10+ km)
Ceiling: at least 12,000 feet AGL
Clouds: few clouds at 3000 feet AGL
Weather: no significant weather observed at this time